createdAt,value
2022-11-29T00:02:02.703Z,24.67
2022-11-29T00:04:30.332Z,24.70
2022-11-29T00:06:57.667Z,24.73
2022-11-29T00:09:24.983Z,24.68
2022-11-29T00:12:10.827Z,24.64
2022-11-29T00:14:38.296Z,24.66
2022-11-29T00:17:06.011Z,24.66
2022-11-29T00:19:35.676Z,24.60
2022-11-29T00:22:04.059Z,24.61
2022-11-29T00:24:32.491Z,24.60
2022-11-29T00:27:00.489Z,24.60
2022-11-29T00:32:13.532Z,24.52
2022-11-29T00:34:41.069Z,24.53
2022-11-29T00:37:08.867Z,24.54
2022-11-29T00:39:36.929Z,24.54
2022-11-29T00:42:05.707Z,24.54
2022-11-29T00:44:33.359Z,24.52
2022-11-29T00:47:00.859Z,24.48
2022-11-29T00:49:28.264Z,24.43
2022-11-29T00:51:55.877Z,24.47
2022-11-29T00:54:23.333Z,24.48
2022-11-29T00:56:50.745Z,24.45
2022-11-29T00:59:18.201Z,24.43
2022-11-29T01:01:45.655Z,24.38
2022-11-29T01:04:13.137Z,24.40
2022-11-29T01:06:40.782Z,24.37
2022-11-29T01:09:08.265Z,24.35
2022-11-29T01:11:35.870Z,24.37
2022-11-29T01:14:04.275Z,24.41
2022-11-29T01:16:32.804Z,24.38
2022-11-29T01:19:00.895Z,24.36
2022-11-29T01:21:28.457Z,24.37
2022-11-29T01:23:56.349Z,24.32
2022-11-29T01:26:27.636Z,24.36
2022-11-29T01:28:56.736Z,24.35
2022-11-29T01:31:27.757Z,24.32
2022-11-29T01:33:57.282Z,24.31
2022-11-29T01:36:25.317Z,24.30
2022-11-29T01:38:52.948Z,24.32
2022-11-29T01:41:23.856Z,24.32
2022-11-29T01:43:55.919Z,24.25
2022-11-29T01:46:24.340Z,24.27
2022-11-29T01:48:55.313Z,24.22
2022-11-29T01:51:23.007Z,24.22
2022-11-29T01:53:50.556Z,24.24
2022-11-29T01:56:18.144Z,24.16
2022-11-29T01:58:45.766Z,24.19
2022-11-29T02:01:14.239Z,24.14
2022-11-29T02:03:41.987Z,24.16
2022-11-29T02:06:09.643Z,24.11
2022-11-29T02:08:40.691Z,24.12
2022-11-29T02:11:36.746Z,24.16
2022-11-29T02:14:56.810Z,24.13
2022-11-29T02:17:41.913Z,24.10
2022-11-29T02:20:27.763Z,24.08
2022-11-29T02:23:04.104Z,24.03
2022-11-29T02:25:46.580Z,24.06
2022-11-29T02:28:27.247Z,24.02
2022-11-29T02:31:02.946Z,24.00
2022-11-29T02:33:39.244Z,24.01
2022-11-29T02:36:30.036Z,23.98
2022-11-29T02:39:52.296Z,23.99
2022-11-29T02:42:25.501Z,23.98
2022-11-29T02:45:19.740Z,23.99
2022-11-29T02:48:05.224Z,23.98
2022-11-29T02:50:59.724Z,23.97
2022-11-29T02:53:35.412Z,23.93
2022-11-29T02:56:40.405Z,23.95
2022-11-29T02:59:26.352Z,23.93
2022-11-29T03:02:27.254Z,23.92
2022-11-29T03:05:25.117Z,23.92
2022-11-29T03:08:00.955Z,23.94
2022-11-29T03:10:57.477Z,23.93
2022-11-29T03:13:46.583Z,23.85
2022-11-29T03:16:43.647Z,23.86
2022-11-29T03:19:23.461Z,23.84
2022-11-29T03:22:18.871Z,23.85
2022-11-29T03:24:55.180Z,23.79
2022-11-29T03:27:31.050Z,23.78
2022-11-29T03:30:05.685Z,23.81
2022-11-29T03:32:45.632Z,23.81
2022-11-29T03:35:22.628Z,23.79
2022-11-29T03:38:16.849Z,23.77
2022-11-29T03:41:15.010Z,23.75
2022-11-29T03:44:03.345Z,23.75
2022-11-29T03:46:38.236Z,23.74
2022-11-29T03:49:28.638Z,23.80
2022-11-29T03:51:58.941Z,23.70
2022-11-29T03:54:35.183Z,23.70
2022-11-29T03:57:02.973Z,23.74
2022-11-29T03:59:32.983Z,23.72
2022-11-29T04:02:41.761Z,23.71
2022-11-29T04:05:29.436Z,23.71
2022-11-29T04:08:11.795Z,23.67
2022-11-29T04:11:08.307Z,23.69
2022-11-29T04:14:04.471Z,23.65
2022-11-29T04:17:02.979Z,23.66
2022-11-29T04:19:48.525Z,23.63
2022-11-29T04:22:32.714Z,23.56
2022-11-29T04:25:15.572Z,23.65
2022-11-29T04:28:09.175Z,23.60
2022-11-29T04:31:14.735Z,23.60
2022-11-29T04:34:17.966Z,23.62
2022-11-29T04:37:09.064Z,23.65
2022-11-29T04:40:01.081Z,23.58
2022-11-29T04:42:55.921Z,23.58
2022-11-29T04:46:01.376Z,23.54
2022-11-29T04:49:05.848Z,23.54
2022-11-29T04:52:04.188Z,23.50
2022-11-29T04:55:09.304Z,23.53
2022-11-29T04:58:04.272Z,23.51
2022-11-29T05:00:44.540Z,23.53
2022-11-29T05:03:20.376Z,23.50
2022-11-29T05:05:53.749Z,23.45
2022-11-29T05:08:30.613Z,23.52
2022-11-29T05:11:01.061Z,23.56
2022-11-29T05:13:28.516Z,23.48
2022-11-29T05:16:04.646Z,23.47
2022-11-29T05:19:02.975Z,23.48
2022-11-29T05:21:30.399Z,23.53
2022-11-29T05:24:19.221Z,23.56
2022-11-29T05:27:33.207Z,23.55
2022-11-29T05:30:11.481Z,23.52
2022-11-29T05:32:57.815Z,23.39
2022-11-29T05:35:51.526Z,23.40
2022-11-29T05:38:56.270Z,23.40
2022-11-29T05:41:32.474Z,23.43
2022-11-29T05:44:12.089Z,23.40
2022-11-29T05:46:39.549Z,23.35
2022-11-29T05:49:21.093Z,23.35
2022-11-29T05:52:14.492Z,23.41
2022-11-29T05:54:52.340Z,23.42
2022-11-29T05:58:01.935Z,23.46
2022-11-29T06:00:40.011Z,23.41
2022-11-29T06:03:18.345Z,23.39
2022-11-29T06:05:57.495Z,23.42
2022-11-29T06:08:24.841Z,23.45
2022-11-29T06:11:00.717Z,23.43
2022-11-29T06:13:51.087Z,23.47
2022-11-29T06:16:33.994Z,23.40
2022-11-29T06:19:20.017Z,23.49
2022-11-29T06:22:02.635Z,23.46
2022-11-29T06:24:51.819Z,23.50
2022-11-29T06:28:04.853Z,23.51
2022-11-29T06:30:50.781Z,23.54
2022-11-29T06:33:28.075Z,23.47
2022-11-29T06:36:16.625Z,23.42
2022-11-29T06:38:44.253Z,23.45
2022-11-29T06:41:19.834Z,23.41
2022-11-29T06:43:47.820Z,23.41
2022-11-29T06:46:36.892Z,23.36
2022-11-29T06:49:14.281Z,23.34
2022-11-29T06:52:00.752Z,23.31
2022-11-29T06:54:34.253Z,23.34
2022-11-29T06:57:20.423Z,23.36
2022-11-29T07:00:00.053Z,23.39
2022-11-29T07:02:59.533Z,23.33
2022-11-29T07:05:35.131Z,23.31
2022-11-29T07:08:06.373Z,23.34
2022-11-29T07:10:36.814Z,23.29
2022-11-29T07:13:04.863Z,23.30
2022-11-29T07:15:32.629Z,23.29
2022-11-29T07:18:28.598Z,23.34
2022-11-29T07:21:13.473Z,23.30
2022-11-29T07:24:00.086Z,23.35
2022-11-29T07:26:27.449Z,23.25
2022-11-29T07:29:00.887Z,23.28
2022-11-29T07:31:59.388Z,23.27
2022-11-29T07:34:54.665Z,23.28
2022-11-29T07:37:44.786Z,23.27
2022-11-29T07:40:37.418Z,23.27
2022-11-29T07:43:34.894Z,23.28
2022-11-29T07:46:02.383Z,23.27
2022-11-29T07:48:29.845Z,23.25
2022-11-29T07:50:57.563Z,23.22
2022-11-29T07:53:25.156Z,23.27
2022-11-29T07:55:53.212Z,23.24
2022-11-29T07:58:21.087Z,23.24
2022-11-29T08:00:48.665Z,23.26
2022-11-29T08:03:16.259Z,23.24
2022-11-29T08:05:46.461Z,23.24
2022-11-29T08:08:15.104Z,23.24
2022-11-29T08:10:42.563Z,23.23
2022-11-29T08:13:10.066Z,23.20
2022-11-29T08:15:43.193Z,23.20
2022-11-29T08:18:10.665Z,23.24
2022-11-29T08:20:39.260Z,23.23
2022-11-29T08:23:06.805Z,23.20
2022-11-29T08:25:34.456Z,23.26
2022-11-29T08:28:03.002Z,23.23
2022-11-29T08:30:30.427Z,23.19
2022-11-29T08:32:58.368Z,23.23
2022-11-29T08:35:26.069Z,23.25
2022-11-29T08:37:54.708Z,23.20
2022-11-29T08:40:23.082Z,23.17
2022-11-29T08:42:50.684Z,23.17
2022-11-29T08:45:18.274Z,23.24
2022-11-29T08:47:45.799Z,23.22
2022-11-29T08:50:18.201Z,23.23
2022-11-29T08:53:06.539Z,23.20
2022-11-29T08:55:40.661Z,23.22
2022-11-29T08:58:13.897Z,23.16
2022-11-29T09:00:44.230Z,23.19
2022-11-29T09:03:30.269Z,23.14
2022-11-29T09:05:57.892Z,23.13
2022-11-29T09:08:25.507Z,23.14
2022-11-29T09:10:53.446Z,23.17
2022-11-29T09:13:20.892Z,23.19
2022-11-29T09:15:48.499Z,23.16
2022-11-29T09:18:16.052Z,23.17
2022-11-29T09:20:44.822Z,23.17
2022-11-29T09:23:13.237Z,23.17
2022-11-29T09:25:40.898Z,23.18
2022-11-29T09:28:08.645Z,23.17
2022-11-29T09:30:38.022Z,23.16
2022-11-29T09:33:05.634Z,23.15
2022-11-29T09:35:34.691Z,23.07
2022-11-29T09:38:02.133Z,23.09
2022-11-29T09:40:40.112Z,23.10
2022-11-29T09:43:10.514Z,23.14
2022-11-29T09:45:43.144Z,23.22
2022-11-29T09:48:26.774Z,23.13
2022-11-29T09:51:16.995Z,23.18
2022-11-29T09:54:03.152Z,23.17
2022-11-29T09:56:47.205Z,23.20
2022-11-29T09:59:33.658Z,23.20
2022-11-29T10:02:22.840Z,23.21
2022-11-29T10:04:59.155Z,23.19
2022-11-29T10:07:35.256Z,23.19
2022-11-29T10:10:04.936Z,23.19
2022-11-29T10:13:15.747Z,23.22
2022-11-29T10:15:50.457Z,23.18
2022-11-29T10:18:29.370Z,23.22
2022-11-29T10:21:03.572Z,23.22
2022-11-29T10:23:39.028Z,23.23
2022-11-29T10:26:08.132Z,23.22
2022-11-29T10:28:37.163Z,23.23
2022-11-29T10:31:17.038Z,23.27
2022-11-29T10:33:45.247Z,23.21
2022-11-29T10:36:25.888Z,23.22
2022-11-29T10:38:59.298Z,23.26
2022-11-29T10:41:27.117Z,23.19
2022-11-29T10:43:58.561Z,23.20
2022-11-29T10:46:34.252Z,23.20
2022-11-29T10:49:11.795Z,23.22
2022-11-29T10:51:39.310Z,23.23
2022-11-29T10:54:41.686Z,23.22
2022-11-29T10:57:14.911Z,23.26
2022-11-29T10:59:59.333Z,23.23
2022-11-29T11:02:27.917Z,23.20
2022-11-29T11:04:56.365Z,23.24
2022-11-29T11:07:36.096Z,23.22
2022-11-29T11:10:17.414Z,23.23
2022-11-29T11:13:01.489Z,23.20
2022-11-29T11:15:31.115Z,23.17
2022-11-29T11:18:05.013Z,23.20
2022-11-29T11:20:35.420Z,23.20
2022-11-29T11:23:07.956Z,23.14
2022-11-29T11:25:39.177Z,23.18
2022-11-29T11:28:23.145Z,23.19
2022-11-29T11:31:11.395Z,23.15
2022-11-29T11:33:41.789Z,23.14
2022-11-29T11:36:12.434Z,23.16
2022-11-29T11:39:08.989Z,23.19
2022-11-29T11:41:59.601Z,23.17
2022-11-29T11:44:58.423Z,23.03
2022-11-29T11:47:29.067Z,23.01
2022-11-29T11:50:06.852Z,23.15
2022-11-29T11:52:42.042Z,23.06
2022-11-29T11:55:21.441Z,23.12
2022-11-29T11:58:09.339Z,23.19
2022-11-29T12:01:04.409Z,23.19
2022-11-29T12:03:56.796Z,23.18
2022-11-29T12:06:29.978Z,23.20
2022-11-29T12:09:16.491Z,23.19
2022-11-29T12:11:51.366Z,23.17
2022-11-29T12:14:28.589Z,23.20
2022-11-29T12:17:05.194Z,23.24
2022-11-29T12:19:41.857Z,23.25
2022-11-29T12:22:15.368Z,23.29
2022-11-29T12:24:53.040Z,23.32
2022-11-29T12:27:20.582Z,23.30
2022-11-29T12:29:48.070Z,23.24
2022-11-29T12:32:42.835Z,23.27
2022-11-29T12:35:35.116Z,23.27
2022-11-29T12:38:08.804Z,23.28
2022-11-29T12:40:59.463Z,23.27
2022-11-29T12:43:45.340Z,23.29
2022-11-29T12:46:29.311Z,23.27
2022-11-29T12:49:02.818Z,23.25
2022-11-29T12:51:57.912Z,23.27
2022-11-29T12:54:28.212Z,23.30
2022-11-29T12:57:23.747Z,23.27
2022-11-29T13:00:17.772Z,23.31
2022-11-29T13:02:53.474Z,23.27
2022-11-29T13:05:33.944Z,23.34
2022-11-29T13:08:04.457Z,23.29
2022-11-29T13:10:35.842Z,23.32
2022-11-29T13:13:16.669Z,23.29
2022-11-29T13:15:44.106Z,23.29
2022-11-29T13:18:24.193Z,23.33
2022-11-29T13:20:56.377Z,23.32
2022-11-29T13:26:38.623Z,23.37
2022-11-29T13:29:07.757Z,23.36
2022-11-29T13:31:36.713Z,23.37
2022-11-29T13:34:13.245Z,23.34
2022-11-29T13:36:43.575Z,23.29
2022-11-29T13:39:16.716Z,23.22
2022-11-29T13:42:10.468Z,23.24
2022-11-29T13:44:51.941Z,23.23
2022-11-29T13:47:20.123Z,23.19
2022-11-29T13:50:07.433Z,23.21
2022-11-29T13:52:40.908Z,23.23
2022-11-29T13:55:12.895Z,23.16
2022-11-29T13:58:15.025Z,23.15
2022-11-29T14:00:51.217Z,23.16
2022-11-29T14:03:19.095Z,23.13
2022-11-29T14:05:49.658Z,23.14
2022-11-29T14:08:25.065Z,23.15
2022-11-29T14:10:55.681Z,23.13
2022-11-29T14:13:31.267Z,23.08
2022-11-29T14:16:01.979Z,23.12
2022-11-29T14:18:38.281Z,23.08
2022-11-29T14:21:05.861Z,23.08
2022-11-29T14:23:41.372Z,23.07
2022-11-29T14:26:08.852Z,23.05
2022-11-29T14:28:39.223Z,23.05
2022-11-29T14:31:10.676Z,23.02
2022-11-29T14:33:47.235Z,23.03
2022-11-29T14:36:14.589Z,23.03
2022-11-29T14:38:55.741Z,23.03
2022-11-29T14:41:56.793Z,23.03
2022-11-29T14:44:28.253Z,23.00
2022-11-29T14:47:24.467Z,23.01
2022-11-29T14:49:54.205Z,23.00
2022-11-29T14:52:32.095Z,22.98
2022-11-29T14:55:06.107Z,23.00
2022-11-29T14:58:01.172Z,23.01
2022-11-29T15:00:34.826Z,22.98
2022-11-29T15:03:17.581Z,23.09
2022-11-29T15:05:46.683Z,22.94
2022-11-29T15:08:19.217Z,23.00
2022-11-29T15:10:54.143Z,23.01
2022-11-29T15:13:35.994Z,23.01
2022-11-29T15:16:24.666Z,23.04
2022-11-29T15:18:59.252Z,23.02
2022-11-29T15:21:29.664Z,22.96
2022-11-29T15:24:08.831Z,23.01
2022-11-29T15:26:36.407Z,22.95
2022-11-29T15:29:19.571Z,23.00
2022-11-29T15:32:04.864Z,22.99
2022-11-29T15:34:39.713Z,23.00
2022-11-29T15:37:12.736Z,22.99
2022-11-29T15:39:40.289Z,23.00
2022-11-29T15:42:12.988Z,22.99
2022-11-29T15:44:48.057Z,22.96
2022-11-29T15:47:24.540Z,22.95
2022-11-29T15:49:53.819Z,22.97
2022-11-29T15:52:27.354Z,22.96
2022-11-29T15:55:00.561Z,22.95
2022-11-29T15:57:36.149Z,22.96
2022-11-29T16:00:08.926Z,22.97
2022-11-29T16:02:40.386Z,22.95
2022-11-29T16:05:37.251Z,22.93
2022-11-29T16:08:12.359Z,22.93
2022-11-29T16:10:47.389Z,22.92
2022-11-29T16:13:35.371Z,22.94
2022-11-29T16:16:17.264Z,23.07
2022-11-29T16:18:46.781Z,23.00
2022-11-29T16:21:32.733Z,23.02
2022-11-29T16:24:12.908Z,23.05
2022-11-29T16:26:44.223Z,23.02
2022-11-29T16:29:26.969Z,23.05
2022-11-29T16:31:55.022Z,23.04
2022-11-29T16:34:27.558Z,23.03
2022-11-29T16:37:07.380Z,23.04
2022-11-29T16:39:37.957Z,23.01
2022-11-29T16:42:25.937Z,23.00
2022-11-29T16:44:56.573Z,23.02
2022-11-29T16:47:26.467Z,23.03
2022-11-29T16:50:03.233Z,23.04
2022-11-29T16:52:32.995Z,23.06
2022-11-29T16:55:00.789Z,23.06
2022-11-29T16:57:29.347Z,23.04
2022-11-29T16:59:56.763Z,23.07
2022-11-29T17:02:24.293Z,23.05
2022-11-29T17:04:51.957Z,23.13
2022-11-29T17:07:39.434Z,23.13
2022-11-29T17:10:11.902Z,23.11
2022-11-29T17:12:42.237Z,23.13
2022-11-29T17:15:14.024Z,23.23
2022-11-29T17:17:43.303Z,23.23
2022-11-29T17:20:12.728Z,23.24
2022-11-29T17:22:41.358Z,23.23
2022-11-29T17:25:09.770Z,23.35
2022-11-29T17:27:37.839Z,23.29
2022-11-29T17:30:06.703Z,23.37
2022-11-29T17:32:35.858Z,23.33
2022-11-29T17:35:03.765Z,23.29
2022-11-29T17:37:31.866Z,23.25
2022-11-29T17:39:59.576Z,23.25
2022-11-29T17:42:27.130Z,23.35
2022-11-29T17:44:54.569Z,23.31
2022-11-29T17:47:22.099Z,23.33
2022-11-29T17:49:49.525Z,23.36
2022-11-29T17:52:16.979Z,23.40
2022-11-29T17:54:44.399Z,23.44
2022-11-29T17:57:11.985Z,23.49
2022-11-29T17:59:39.490Z,23.50
2022-11-29T18:02:07.082Z,23.51
2022-11-29T18:04:34.513Z,23.56
2022-11-29T18:07:01.923Z,23.48
2022-11-29T18:09:29.588Z,23.55
2022-11-29T18:11:57.038Z,23.55
2022-11-29T18:14:28.078Z,23.56
2022-11-29T18:16:55.751Z,23.64
2022-11-29T18:19:23.816Z,23.73
2022-11-29T18:21:51.756Z,23.74
2022-11-29T18:24:19.771Z,23.74
2022-11-29T18:26:47.393Z,23.65
2022-11-29T18:29:15.208Z,23.58
2022-11-29T18:31:44.592Z,23.51
2022-11-29T18:34:13.789Z,23.47
2022-11-29T18:36:47.296Z,23.49
2022-11-29T18:39:17.628Z,23.48
2022-11-29T18:41:47.734Z,23.46
2022-11-29T18:44:17.550Z,23.42
2022-11-29T18:46:46.809Z,23.44
2022-11-29T18:49:16.503Z,23.46
2022-11-29T18:51:45.941Z,23.46
2022-11-29T18:54:16.629Z,23.45
2022-11-29T18:56:45.587Z,23.44
2022-11-29T18:59:17.040Z,23.48
2022-11-29T19:01:47.649Z,23.47
2022-11-29T19:04:20.588Z,23.47
2022-11-29T19:06:48.441Z,23.50
2022-11-29T19:09:20.996Z,23.54
2022-11-29T19:11:51.667Z,23.55
2022-11-29T19:14:21.018Z,23.54
2022-11-29T19:16:50.167Z,23.58
2022-11-29T19:19:19.124Z,23.57
2022-11-29T19:21:46.917Z,23.61
2022-11-29T19:24:15.763Z,23.59
2022-11-29T19:26:45.779Z,23.59
2022-11-29T19:29:14.365Z,23.60
2022-11-29T19:31:42.713Z,23.59
2022-11-29T19:34:10.943Z,23.64
2022-11-29T19:36:43.141Z,23.60
2022-11-29T19:39:13.398Z,23.64
2022-11-29T19:41:43.912Z,23.60
2022-11-29T19:44:11.867Z,23.63
2022-11-29T19:46:45.986Z,23.62
2022-11-29T19:49:13.616Z,23.61
2022-11-29T19:51:41.442Z,23.59
2022-11-29T19:54:10.278Z,23.53
2022-11-29T19:56:38.915Z,23.58
2022-11-29T19:59:07.611Z,23.50
2022-11-29T20:01:40.784Z,23.50
2022-11-29T20:04:10.890Z,23.51
2022-11-29T20:06:39.223Z,23.57
2022-11-29T20:09:07.160Z,23.51
2022-11-29T20:11:35.038Z,23.56
2022-11-29T20:14:04.272Z,23.56
2022-11-29T20:16:32.435Z,23.48
2022-11-29T20:18:59.987Z,23.47
2022-11-29T20:21:32.706Z,23.47
2022-11-29T20:24:03.630Z,23.57
2022-11-29T20:26:33.489Z,23.52
2022-11-29T20:29:02.190Z,23.46
2022-11-29T20:31:30.224Z,23.49
2022-11-29T20:33:57.970Z,23.45
2022-11-29T20:37:05.781Z,23.42
2022-11-29T20:39:58.276Z,23.42
2022-11-29T20:42:56.868Z,23.45
2022-11-29T20:45:25.517Z,23.45
2022-11-29T20:47:58.679Z,23.44
2022-11-29T20:50:28.940Z,23.41
2022-11-29T20:52:59.619Z,23.39
2022-11-29T20:55:27.136Z,23.45
2022-11-29T20:57:55.837Z,23.41
2022-11-29T21:00:23.886Z,23.39
2022-11-29T21:02:51.602Z,23.36
2022-11-29T21:05:19.592Z,23.33
2022-11-29T21:07:47.357Z,23.33
2022-11-29T21:10:15.566Z,23.36
2022-11-29T21:12:45.834Z,23.35
2022-11-29T21:15:14.995Z,23.35
2022-11-29T21:17:43.348Z,23.33
2022-11-29T21:20:20.891Z,23.33
2022-11-29T21:23:08.836Z,23.30
2022-11-29T21:25:58.260Z,23.34
2022-11-29T21:28:34.393Z,23.39
2022-11-29T21:31:02.208Z,23.34
2022-11-29T21:33:29.951Z,23.39
2022-11-29T21:35:58.278Z,23.33
2022-11-29T21:38:27.087Z,23.32
2022-11-29T21:40:54.681Z,23.40
2022-11-29T21:43:28.742Z,23.41
2022-11-29T21:46:09.577Z,23.42
2022-11-29T21:48:37.983Z,23.34
2022-11-29T21:51:07.229Z,23.35
2022-11-29T21:53:36.816Z,23.34
2022-11-29T21:56:06.975Z,23.35
2022-11-29T21:58:36.240Z,23.34
2022-11-29T22:01:12.458Z,23.36
2022-11-29T22:03:40.835Z,23.34
2022-11-29T22:06:10.902Z,23.30
2022-11-29T22:08:40.228Z,23.33
2022-11-29T22:11:10.740Z,23.32
2022-11-29T22:13:59.939Z,23.31
2022-11-29T22:16:28.513Z,23.30
2022-11-29T22:18:56.010Z,23.22
2022-11-29T22:21:24.543Z,23.23
2022-11-29T22:23:52.814Z,23.28
2022-11-29T22:26:22.028Z,23.23
2022-11-29T22:28:49.536Z,23.24
2022-11-29T22:31:17.125Z,23.23
2022-11-29T22:33:44.549Z,23.23
2022-11-29T22:36:13.413Z,23.20
2022-11-29T22:38:40.901Z,23.19
2022-11-29T22:41:11.125Z,23.23
2022-11-29T22:43:40.449Z,23.19
2022-11-29T22:46:10.764Z,23.20
2022-11-29T22:48:39.546Z,23.19
2022-11-29T22:51:11.661Z,23.20
2022-11-29T22:53:41.893Z,23.17
2022-11-29T22:56:10.959Z,23.16
2022-11-29T22:58:38.822Z,23.15
2022-11-29T23:01:09.549Z,23.15
2022-11-29T23:03:39.150Z,23.16
2022-11-29T23:06:11.717Z,23.17
2022-11-29T23:08:40.566Z,23.17
2022-11-29T23:11:11.127Z,23.09
2022-11-29T23:13:41.070Z,23.18
2022-11-29T23:16:11.558Z,23.16
2022-11-29T23:18:40.054Z,23.14
2022-11-29T23:21:10.469Z,23.18
2022-11-29T23:23:38.446Z,23.14
2022-11-29T23:26:08.179Z,23.12
2022-11-29T23:28:36.171Z,23.08
2022-11-29T23:31:03.662Z,23.11
2022-11-29T23:33:31.061Z,23.09
2022-11-29T23:36:05.029Z,23.10
2022-11-29T23:38:33.551Z,23.13
2022-11-29T23:41:01.192Z,23.12
2022-11-29T23:43:30.269Z,23.11
2022-11-29T23:45:58.322Z,23.05
2022-11-29T23:48:26.186Z,23.10
2022-11-29T23:50:53.912Z,23.08
2022-11-29T23:53:21.471Z,23.08
2022-11-29T23:56:00.771Z,23.09
2022-11-29T23:58:29.745Z,23.09
